Friday, January 18, 2019, 2:39 AM EST
Back to Local

KFOK, The Gabreski Airport

Location: East Quogue, NY, United States Lat: 40.85
Local Time: 2:39 AM EST ( 7:39 GMT) Lon: -72.617
Time Zone: US/Eastern Elev: 65 ft

Show me the last for .
Show Coded

Time T Td Feel RH Dir Speed Gust Alt SLP Vis Weather Sky Remarks
2019-01-18 02:25 32 27 29 81 60° 3 - 30.21 - 3 -SN FEW011 SCT017 OVC035 1-hr Precip Total: 0.01"
2019-01-18 02:05 32 27 29 81 70° 3 - 30.21 - 3 -SN SCT014 BKN029 OVC035 1-hr Precip Total: 0.01"
2019-01-18 01:53 31 26 - 81 - Calm - 30.22 30.22 2 -SN BKN024 OVC029 1-hr Precip Total: Trace
2019-01-18 01:35 28 21 - 74 - Calm - 30.22 - 1 -SN OVC024 1-hr Precip Total: Trace
2019-01-18 01:25 28 21 - 74 - Calm - 30.22 - 2 -SN OVC024 1-hr Precip Total: Trace
2019-01-18 01:01 29 20 25 68 50° 3 - 30.22 - 4 -SN OVC028 1-hr Precip Total: Trace
2019-01-18 00:53 30 20 - 65 - Calm - 30.22 30.22 5 -SN OVC030 1-hr Precip Total: Trace
6-hr Precip Total (1am): 0.00"
6-hr Min Temp (1am): 21.9°F
6-hr Max Temp (1am): 30.0°F
2019-01-17 23:53 29 17 25 60 40° 3 - 30.26 30.26 10 BKN035 OVC042 24-hr Min Temp (12am): 21.9°F
24-hr Max Temp (12am): 32.0°F
2019-01-17 22:53 28 16 22 60 50° 6 - 30.27 30.27 10 SCT100 BKN120 None
2019-01-17 21:53 24 11 20 56 340° 3 - 30.31 30.31 10 CLR None
2019-01-17 20:53 23 8 17 52 320° 5 - 30.32 30.32 10 FEW120 None
2019-01-17 19:53 24 7 20 47 330° 3 - 30.32 30.32 10 CLR None
2019-01-17 18:53 25 6 21 43 10° 3 - 30.34 30.34 10 CLR 6-hr Min Temp (7pm): 25.0°F
6-hr Max Temp (7pm): 30.9°F
2019-01-17 17:53 28 3 - 33 - Calm - 30.35 30.35 10 FEW110 None
2019-01-17 16:53 28 2 - 31 - Calm - 30.32 30.32 10 SCT120 None
2019-01-17 15:53 29 -2 - 25 - Calm - 30.35 30.35 10 CLR None
2019-01-17 14:53 30 0 25 26 30° 5 - 30.36 30.36 10 CLR None
2019-01-17 13:53 30 0 22 26 40° 8 - 30.36 30.36 10 CLR None
2019-01-17 12:53 31 1 23 27 20° 9 - 30.38 30.38 10 CLR 6-hr Min Temp (1pm): 23.0°F
6-hr Max Temp (1pm): 30.9°F
2019-01-17 11:53 30 4 23 32 330° 7 - 30.40 30.40 10 CLR None
2019-01-17 10:53 28 1 19 30 10° 9 - 30.43 30.43 10 CLR None
2019-01-17 09:53 28 4 18 34 360° 12 - 30.42 30.42 10 CLR None
2019-01-17 08:53 26 4 16 37 340° 12 - 30.42 30.42 10 CLR None
2019-01-17 07:53 24 9 16 51 340° 7 - 30.40 30.40 10 CLR None
2019-01-17 06:53 24 10 16 54 360° 7 - 30.37 30.37 10 CLR 6-hr Min Temp (7am): 21.9°F
6-hr Max Temp (7am): 30.9°F
2019-01-17 05:53 25 10 18 52 340° 6 - 30.35 30.34 10 CLR None
2019-01-17 04:53 26 10 18 50 340° 7 - 30.32 30.32 10 CLR None
2019-01-17 03:53 25 11 17 54 350° 7 - 30.30 30.30 10 CLR None
2019-01-17 02:53 28 10 19 46 340° 9 - 30.29 30.29 10 CLR None

Support USWX by starting your Amazon purchase here.